createdAt,value
2023-02-05T00:01:36.577Z,18.60
2023-02-05T00:04:03.511Z,18.60
2023-02-05T00:06:30.549Z,18.60
2023-02-05T00:08:58.111Z,18.60
2023-02-05T00:11:26.061Z,18.60
2023-02-05T00:13:52.864Z,18.60
2023-02-05T00:16:22.567Z,18.60
2023-02-05T00:18:50.035Z,18.50
2023-02-05T00:21:18.244Z,18.50
2023-02-05T00:23:45.532Z,18.50
2023-02-05T00:26:14.192Z,18.50
2023-02-05T00:28:41.713Z,18.50
2023-02-05T00:31:17.320Z,18.50
2023-02-05T00:33:44.611Z,18.50
2023-02-05T00:36:12.986Z,18.50
2023-02-05T00:38:40.759Z,18.50
2023-02-05T00:41:07.573Z,18.60
2023-02-05T00:43:34.824Z,18.60
2023-02-05T00:46:02.162Z,18.60
2023-02-05T00:48:29.553Z,18.60
2023-02-05T00:50:56.724Z,18.60
2023-02-05T00:53:24.605Z,18.60
2023-02-05T00:55:51.453Z,18.60
2023-02-05T00:58:18.363Z,18.60
2023-02-05T01:00:45.875Z,18.70
2023-02-05T01:03:13.069Z,18.70
2023-02-05T01:05:40.404Z,18.70
2023-02-05T01:08:08.974Z,18.70
2023-02-05T01:10:36.046Z,18.70
2023-02-05T01:13:04.429Z,18.70
2023-02-05T01:15:32.087Z,18.70
2023-02-05T01:17:59.884Z,18.70
2023-02-05T01:20:27.543Z,18.70
2023-02-05T01:22:54.301Z,18.70
2023-02-05T01:25:21.101Z,18.70
2023-02-05T01:27:48.108Z,18.60
2023-02-05T01:30:15.259Z,18.60
2023-02-05T01:32:42.387Z,18.50
2023-02-05T01:35:09.346Z,18.50
2023-02-05T01:37:36.168Z,18.40
2023-02-05T01:40:03.228Z,18.40
2023-02-05T01:42:32.657Z,18.40
2023-02-05T01:45:32.623Z,18.40
2023-02-05T01:48:02.125Z,18.40
2023-02-05T01:50:46.029Z,18.40
2023-02-05T01:53:24.714Z,18.40
2023-02-05T01:55:58.708Z,18.40
2023-02-05T01:58:30.486Z,18.40
2023-02-05T02:00:57.443Z,18.40
2023-02-05T02:03:27.938Z,18.40
2023-02-05T02:05:55.641Z,18.40
2023-02-05T02:08:22.918Z,18.40
2023-02-05T02:10:52.387Z,18.40
2023-02-05T02:13:21.823Z,18.40
2023-02-05T02:15:50.038Z,18.40
2023-02-05T02:18:28.457Z,18.50
2023-02-05T02:21:22.698Z,18.50
2023-02-05T02:24:07.523Z,18.50
2023-02-05T02:27:01.685Z,18.50
2023-02-05T02:29:41.712Z,18.50
2023-02-05T02:32:32.783Z,18.50
2023-02-05T02:35:19.972Z,18.50
2023-02-05T02:37:50.316Z,18.50
2023-02-05T02:40:45.644Z,18.50
2023-02-05T02:43:31.906Z,18.50
2023-02-05T02:46:05.467Z,18.50
2023-02-05T02:48:35.048Z,18.50
2023-02-05T02:51:03.294Z,18.50
2023-02-05T02:53:42.778Z,18.50
2023-02-05T02:56:12.348Z,18.50
2023-02-05T02:58:45.930Z,18.50
2023-02-05T03:01:14.821Z,18.50
2023-02-05T03:03:46.556Z,18.50
2023-02-05T03:06:15.928Z,18.50
2023-02-05T03:08:57.693Z,18.50
2023-02-05T03:11:26.221Z,18.60
2023-02-05T03:13:55.598Z,18.50
2023-02-05T03:16:24.325Z,18.50
2023-02-05T03:18:51.529Z,18.50
2023-02-05T03:21:24.799Z,18.50
2023-02-05T03:23:52.186Z,18.50
2023-02-05T03:26:24.605Z,18.50
2023-02-05T03:28:52.349Z,18.50
2023-02-05T03:31:23.332Z,18.50
2023-02-05T03:34:01.730Z,18.50
2023-02-05T03:37:06.796Z,18.40
2023-02-05T03:40:09.334Z,18.40
2023-02-05T03:42:41.079Z,18.30
2023-02-05T03:45:45.360Z,18.30
2023-02-05T03:48:16.097Z,18.30
2023-02-05T03:50:49.003Z,18.30
2023-02-05T03:53:21.593Z,18.30
2023-02-05T03:55:57.933Z,18.30
2023-02-05T03:58:31.565Z,18.40
2023-02-05T04:00:58.917Z,18.40
2023-02-05T04:03:25.926Z,18.50
2023-02-05T04:05:52.680Z,18.60
2023-02-05T04:08:19.537Z,18.60
2023-02-05T04:10:46.339Z,18.70
2023-02-05T04:13:13.973Z,18.70
2023-02-05T04:15:40.874Z,18.80
2023-02-05T04:18:08.280Z,18.80
2023-02-05T04:20:35.076Z,18.90
2023-02-05T04:23:02.688Z,18.90
2023-02-05T04:25:29.447Z,18.90
2023-02-05T04:27:56.266Z,18.90
2023-02-05T04:30:23.110Z,18.90
2023-02-05T04:32:50.005Z,18.90
2023-02-05T04:35:16.901Z,18.90
2023-02-05T04:37:44.860Z,18.90
2023-02-05T04:40:11.915Z,18.80
2023-02-05T04:42:38.714Z,18.80
2023-02-05T04:45:05.982Z,18.80
2023-02-05T04:47:33.829Z,18.80
2023-02-05T04:50:00.636Z,18.80
2023-02-05T04:52:28.676Z,18.80
2023-02-05T04:54:55.437Z,18.90
2023-02-05T04:57:24.164Z,18.90
2023-02-05T04:59:50.973Z,18.90
2023-02-05T05:02:17.815Z,18.90
2023-02-05T05:04:44.655Z,19.00
2023-02-05T05:07:11.568Z,19.00
2023-02-05T05:09:38.436Z,19.00
2023-02-05T05:12:05.491Z,19.00
2023-02-05T05:14:32.290Z,19.00
2023-02-05T05:16:59.080Z,18.90
2023-02-05T05:19:25.947Z,18.90
2023-02-05T05:21:52.708Z,18.90
2023-02-05T05:24:19.478Z,18.80
2023-02-05T05:26:46.531Z,18.80
2023-02-05T05:29:14.271Z,18.80
2023-02-05T05:31:41.622Z,18.80
2023-02-05T05:34:08.535Z,18.80
2023-02-05T05:36:35.305Z,18.80
2023-02-05T05:39:22.129Z,18.80
2023-02-05T05:42:07.545Z,18.90
2023-02-05T05:44:34.528Z,18.90
2023-02-05T05:47:01.308Z,18.90
2023-02-05T05:49:28.264Z,19.00
2023-02-05T05:51:55.087Z,19.00
2023-02-05T05:54:21.856Z,19.00
2023-02-05T05:56:49.630Z,19.10
2023-02-05T05:59:16.775Z,19.10
2023-02-05T06:01:43.774Z,19.10
2023-02-05T06:04:10.717Z,19.20
2023-02-05T06:06:38.096Z,19.20
2023-02-05T06:09:04.936Z,19.20
2023-02-05T06:11:31.739Z,19.20
2023-02-05T06:13:58.571Z,19.20
2023-02-05T06:16:25.354Z,19.10
2023-02-05T06:18:53.349Z,19.10
2023-02-05T06:21:20.166Z,19.10
2023-02-05T06:23:47.275Z,19.10
2023-02-05T06:26:14.927Z,19.10
2023-02-05T06:28:41.764Z,19.10
2023-02-05T06:31:08.679Z,19.10
2023-02-05T06:33:35.534Z,19.20
2023-02-05T06:36:02.335Z,19.20
2023-02-05T06:38:29.238Z,19.20
2023-02-05T06:40:56.029Z,19.20
2023-02-05T06:43:22.942Z,19.20
2023-02-05T06:45:49.734Z,19.20
2023-02-05T06:48:16.576Z,19.20
2023-02-05T06:50:43.574Z,19.30
2023-02-05T06:53:11.838Z,19.20
2023-02-05T06:55:39.016Z,19.30
2023-02-05T06:58:07.669Z,19.20
2023-02-05T07:00:35.183Z,19.20
2023-02-05T07:03:02.017Z,19.20
2023-02-05T07:05:28.969Z,19.20
2023-02-05T07:07:55.907Z,19.10
2023-02-05T07:10:22.704Z,19.10
2023-02-05T07:12:49.548Z,19.10
2023-02-05T07:15:16.372Z,19.10
2023-02-05T07:17:43.169Z,19.10
2023-02-05T07:20:10.604Z,19.10
2023-02-05T07:22:37.351Z,19.10
2023-02-05T07:25:04.893Z,19.10
2023-02-05T07:27:31.829Z,19.10
2023-02-05T07:29:59.446Z,19.20
2023-02-05T07:32:26.351Z,19.10
2023-02-05T07:34:53.405Z,19.20
2023-02-05T07:37:21.512Z,19.20
2023-02-05T07:39:48.793Z,19.20
2023-02-05T07:42:15.782Z,19.20
2023-02-05T07:44:43.046Z,19.10
2023-02-05T07:47:09.864Z,19.10
2023-02-05T07:49:36.721Z,19.10
2023-02-05T07:52:03.658Z,19.00
2023-02-05T07:54:30.435Z,19.00
2023-02-05T07:56:57.256Z,19.00
2023-02-05T07:59:24.075Z,18.90
2023-02-05T08:01:50.889Z,18.90
2023-02-05T08:04:17.797Z,18.90
2023-02-05T08:06:44.694Z,18.90
2023-02-05T08:09:11.730Z,18.80
2023-02-05T08:11:38.621Z,18.80
2023-02-05T08:14:05.518Z,18.80
2023-02-05T08:16:32.484Z,18.80
2023-02-05T08:18:59.349Z,18.90
2023-02-05T08:21:26.136Z,18.90
2023-02-05T08:23:52.979Z,18.90
2023-02-05T08:26:19.875Z,18.90
2023-02-05T08:28:46.656Z,18.90
2023-02-05T08:31:18.943Z,18.90
2023-02-05T08:33:47.753Z,18.90
2023-02-05T08:36:14.836Z,18.90
2023-02-05T08:38:41.650Z,18.90
2023-02-05T08:41:12.490Z,18.80
2023-02-05T08:43:41.654Z,18.80
2023-02-05T08:46:09.492Z,18.70
2023-02-05T08:48:36.669Z,18.60
2023-02-05T08:51:04.149Z,18.60
2023-02-05T08:53:32.376Z,18.60
2023-02-05T08:56:01.761Z,18.70
2023-02-05T08:58:29.120Z,18.70
2023-02-05T09:01:08.189Z,18.70
2023-02-05T09:03:35.427Z,18.80
2023-02-05T09:06:06.430Z,18.70
2023-02-05T09:08:33.241Z,18.80
2023-02-05T09:11:00.109Z,18.80
2023-02-05T09:13:27.451Z,18.90
2023-02-05T09:15:54.226Z,18.90
2023-02-05T09:18:21.202Z,18.90
2023-02-05T09:20:49.717Z,19.00
2023-02-05T09:23:18.520Z,19.00
2023-02-05T09:25:45.425Z,19.00
2023-02-05T09:28:14.029Z,19.00
2023-02-05T09:30:46.024Z,19.00
2023-02-05T09:33:13.494Z,18.90
2023-02-05T09:35:40.677Z,18.90
2023-02-05T09:38:07.700Z,18.90
2023-02-05T09:40:59.850Z,18.90
2023-02-05T09:43:35.002Z,18.90
2023-02-05T09:46:40.446Z,18.90
2023-02-05T09:49:40.411Z,18.90
2023-02-05T09:52:29.570Z,18.90
2023-02-05T09:55:03.857Z,19.00
2023-02-05T09:57:38.742Z,19.00
2023-02-05T10:00:20.399Z,19.10
2023-02-05T10:03:10.652Z,19.10
2023-02-05T10:06:12.908Z,19.10
2023-02-05T10:09:11.094Z,19.20
2023-02-05T10:12:12.748Z,19.30
2023-02-05T10:14:58.344Z,19.30
2023-02-05T10:17:34.779Z,19.30
2023-02-05T10:20:21.616Z,19.30
2023-02-05T10:23:09.433Z,19.20
2023-02-05T10:25:47.481Z,19.30
2023-02-05T10:28:45.602Z,19.30
2023-02-05T10:31:30.269Z,19.40
2023-02-05T10:34:18.737Z,19.40
2023-02-05T10:36:52.694Z,19.40
2023-02-05T10:39:24.880Z,19.40
2023-02-05T10:41:58.902Z,19.40
2023-02-05T10:44:45.003Z,19.50
2023-02-05T10:47:35.970Z,19.50
2023-02-05T10:50:14.038Z,19.60
2023-02-05T10:52:40.889Z,19.60
2023-02-05T10:55:12.601Z,19.60
2023-02-05T10:57:39.510Z,19.60
2023-02-05T11:00:18.759Z,19.60
2023-02-05T11:02:54.843Z,19.60
2023-02-05T11:05:28.852Z,19.70
2023-02-05T11:07:55.747Z,19.70
2023-02-05T11:10:33.783Z,19.70
2023-02-05T11:13:20.308Z,19.70
2023-02-05T11:15:57.133Z,19.80
2023-02-05T11:18:29.096Z,19.80
2023-02-05T11:20:59.268Z,19.80
2023-02-05T11:23:29.231Z,19.80
2023-02-05T11:26:01.121Z,19.70
2023-02-05T11:28:29.635Z,19.70
2023-02-05T11:30:57.688Z,19.60
2023-02-05T11:33:31.396Z,19.60
2023-02-05T11:36:01.402Z,19.50
2023-02-05T11:38:48.305Z,19.50
2023-02-05T11:41:51.696Z,19.30
2023-02-05T11:44:24.395Z,19.30
2023-02-05T11:46:57.515Z,19.20
2023-02-05T11:49:34.780Z,19.20
2023-02-05T11:52:12.452Z,19.20
2023-02-05T11:54:46.110Z,19.20
2023-02-05T11:57:22.280Z,19.20
2023-02-05T12:00:01.923Z,19.20
2023-02-05T12:02:33.973Z,19.10
2023-02-05T12:05:13.324Z,19.10
2023-02-05T12:07:50.485Z,19.10
2023-02-05T12:10:38.297Z,19.10
2023-02-05T12:13:30.234Z,19.00
2023-02-05T12:16:25.030Z,19.00
2023-02-05T12:19:22.590Z,19.00
2023-02-05T12:21:54.166Z,19.00
2023-02-05T12:24:58.794Z,18.90
2023-02-05T12:28:03.420Z,18.90
2023-02-05T12:30:49.137Z,18.80
2023-02-05T12:33:34.763Z,18.80
2023-02-05T12:36:27.703Z,18.80
2023-02-05T12:39:37.479Z,18.80
2023-02-05T12:42:07.733Z,18.80
2023-02-05T12:44:55.693Z,18.70
2023-02-05T12:48:07.812Z,18.70
2023-02-05T12:50:45.876Z,18.70
2023-02-05T12:53:27.816Z,18.70
2023-02-05T12:56:09.695Z,18.70
2023-02-05T12:58:43.180Z,18.60
2023-02-05T13:01:33.472Z,18.70
2023-02-05T13:04:02.242Z,18.60
2023-02-05T13:06:42.280Z,18.60
2023-02-05T13:09:22.688Z,18.70
2023-02-05T13:11:56.063Z,18.70
2023-02-05T13:14:30.211Z,18.70
2023-02-05T13:17:05.148Z,18.70
2023-02-05T13:19:44.994Z,18.60
2023-02-05T13:22:41.433Z,18.60
2023-02-05T13:25:38.309Z,18.60
2023-02-05T13:28:41.962Z,18.50
2023-02-05T13:31:42.183Z,18.50
2023-02-05T13:34:14.072Z,18.50
2023-02-05T13:37:14.325Z,18.60
2023-02-05T13:39:53.143Z,18.60
2023-02-05T13:42:35.022Z,18.70
2023-02-05T13:45:20.766Z,18.80
2023-02-05T13:48:12.555Z,18.80
2023-02-05T13:51:15.529Z,18.90
2023-02-05T13:53:57.861Z,19.00
2023-02-05T13:56:45.504Z,19.00
2023-02-05T13:59:15.713Z,19.10
2023-02-05T14:01:50.766Z,19.10
2023-02-05T14:04:27.383Z,19.20
2023-02-05T14:07:22.668Z,19.20
2023-02-05T14:10:00.557Z,19.30
2023-02-05T14:12:30.378Z,19.40
2023-02-05T14:15:16.327Z,19.40
2023-02-05T14:17:43.543Z,19.40
2023-02-05T14:20:26.146Z,19.40
2023-02-05T14:22:54.203Z,19.40
2023-02-05T14:25:36.991Z,19.50
2023-02-05T14:28:16.618Z,19.50
2023-02-05T14:30:50.843Z,19.60
2023-02-05T14:33:40.141Z,19.60
2023-02-05T14:36:22.900Z,19.70
2023-02-05T14:39:27.424Z,19.70
2023-02-05T14:41:59.029Z,19.80
2023-02-05T14:44:33.413Z,19.80
2023-02-05T14:47:27.273Z,19.80
2023-02-05T14:50:10.125Z,19.80
2023-02-05T14:52:47.008Z,19.90
2023-02-05T14:55:14.128Z,19.90
2023-02-05T14:57:54.575Z,19.90
2023-02-05T15:00:27.097Z,19.90
2023-02-05T15:03:22.595Z,19.90
2023-02-05T15:06:08.569Z,19.90
2023-02-05T15:08:36.088Z,20.00
2023-02-05T15:11:28.735Z,20.00
2023-02-05T15:14:33.119Z,20.00
2023-02-05T15:17:05.960Z,20.00
2023-02-05T15:19:44.404Z,20.00
2023-02-05T15:22:35.789Z,20.00
2023-02-05T15:25:09.224Z,20.00
2023-02-05T15:27:46.845Z,20.10
2023-02-05T15:30:20.146Z,20.10
2023-02-05T15:32:57.456Z,20.10
2023-02-05T15:35:26.699Z,20.10
2023-02-05T15:37:57.420Z,20.20
2023-02-05T15:40:34.564Z,20.20
2023-02-05T15:43:17.343Z,20.20
2023-02-05T15:45:45.190Z,20.20
2023-02-05T15:48:17.687Z,20.20
2023-02-05T15:50:56.194Z,20.20
2023-02-05T15:53:49.186Z,20.20
2023-02-05T15:56:19.860Z,20.30
2023-02-05T15:58:56.365Z,20.30
2023-02-05T16:01:30.988Z,20.30
2023-02-05T16:03:58.127Z,20.30
2023-02-05T16:06:27.764Z,20.40
2023-02-05T16:08:56.408Z,20.40
2023-02-05T16:11:35.250Z,20.40
2023-02-05T16:14:17.453Z,20.40
2023-02-05T16:17:13.753Z,20.40
2023-02-05T16:19:52.101Z,20.40
2023-02-05T16:22:30.524Z,20.40
2023-02-05T16:25:01.985Z,20.40
2023-02-05T16:27:46.886Z,20.40
2023-02-05T16:30:31.409Z,20.30
2023-02-05T16:33:07.438Z,20.30
2023-02-05T16:35:41.100Z,20.20
2023-02-05T16:38:16.870Z,20.20
2023-02-05T16:40:48.526Z,20.10
2023-02-05T16:43:38.488Z,20.00
2023-02-05T16:46:08.545Z,20.00
2023-02-05T16:48:38.456Z,20.00
2023-02-05T16:51:06.014Z,20.00
2023-02-05T16:53:36.038Z,19.90
2023-02-05T16:59:01.861Z,20.00
2023-02-05T17:01:36.992Z,20.00
2023-02-05T17:04:04.382Z,20.00
2023-02-05T17:06:37.537Z,20.00
2023-02-05T17:09:05.745Z,20.00
2023-02-05T17:11:38.071Z,20.00
2023-02-05T17:14:31.402Z,20.00
2023-02-05T17:17:03.316Z,20.00
2023-02-05T17:19:32.397Z,20.00
2023-02-05T17:22:28.543Z,20.00
2023-02-05T17:24:55.314Z,20.10
2023-02-05T17:27:37.527Z,20.10
2023-02-05T17:30:10.536Z,20.10
2023-02-05T17:32:37.495Z,20.10
2023-02-05T17:35:13.542Z,20.10
2023-02-05T17:37:40.359Z,20.10
2023-02-05T17:40:07.615Z,20.10
2023-02-05T17:42:34.407Z,20.10
2023-02-05T17:45:01.288Z,20.10
2023-02-05T17:47:28.634Z,20.10
2023-02-05T17:49:57.830Z,20.10
2023-02-05T17:52:25.055Z,20.10
2023-02-05T17:54:51.873Z,20.20
2023-02-05T17:57:22.058Z,20.20
2023-02-05T17:59:49.559Z,20.10
2023-02-05T18:02:16.787Z,20.20
2023-02-05T18:04:44.978Z,20.20
2023-02-05T18:07:35.066Z,20.20
2023-02-05T18:10:03.465Z,20.20
2023-02-05T18:12:35.912Z,20.10
2023-02-05T18:15:03.991Z,20.10
2023-02-05T18:17:32.287Z,20.00
2023-02-05T18:19:59.393Z,20.00
2023-02-05T18:22:27.220Z,20.00
2023-02-05T18:24:54.100Z,19.90
2023-02-05T18:27:25.892Z,19.90
2023-02-05T18:29:54.531Z,19.80
2023-02-05T18:32:22.607Z,19.80
2023-02-05T18:34:51.488Z,19.90
2023-02-05T18:37:18.786Z,19.90
2023-02-05T18:39:47.688Z,19.80
2023-02-05T18:42:15.438Z,19.80
2023-02-05T18:44:42.533Z,19.80
2023-02-05T18:47:10.746Z,19.80
2023-02-05T18:49:37.765Z,19.80
2023-02-05T18:52:06.244Z,19.80
2023-02-05T18:54:33.296Z,19.80
2023-02-05T18:57:01.013Z,19.90
2023-02-05T18:59:28.105Z,19.80
2023-02-05T19:01:55.887Z,19.80
2023-02-05T19:04:24.833Z,19.90
2023-02-05T19:06:53.393Z,19.90
2023-02-05T19:09:22.586Z,19.90
2023-02-05T19:11:50.554Z,19.90
2023-02-05T19:14:19.128Z,19.90
2023-02-05T19:16:47.205Z,19.90
2023-02-05T19:19:21.015Z,19.90
2023-02-05T19:21:53.899Z,19.90
2023-02-05T19:24:21.644Z,19.90
2023-02-05T19:26:51.132Z,19.90
2023-02-05T19:29:20.253Z,19.90
2023-02-05T19:31:48.031Z,20.00
2023-02-05T19:34:15.793Z,20.00
2023-02-05T19:36:42.987Z,20.00
2023-02-05T19:39:14.056Z,20.00
2023-02-05T19:41:45.447Z,20.00
2023-02-05T19:44:12.786Z,20.00
2023-02-05T19:46:44.243Z,20.00
2023-02-05T19:49:18.382Z,20.00
2023-02-05T19:51:47.347Z,20.00
2023-02-05T19:54:20.089Z,19.90
2023-02-05T19:56:50.069Z,19.90
2023-02-05T19:59:17.542Z,19.90
2023-02-05T20:01:45.520Z,19.80
2023-02-05T20:04:17.656Z,19.80
2023-02-05T20:06:48.676Z,19.80
2023-02-05T20:09:17.538Z,19.70
2023-02-05T20:11:48.017Z,19.70
2023-02-05T20:14:16.310Z,19.60
2023-02-05T20:16:45.218Z,19.60
2023-02-05T20:19:14.696Z,19.60
2023-02-05T20:21:42.306Z,19.60
2023-02-05T20:24:09.922Z,19.50
2023-02-05T20:26:37.730Z,19.50
2023-02-05T20:29:24.786Z,19.50
2023-02-05T20:31:53.250Z,19.50
2023-02-05T20:34:23.504Z,19.40
2023-02-05T20:36:55.926Z,19.40
2023-02-05T20:39:28.679Z,19.40
2023-02-05T20:41:59.540Z,19.40
2023-02-05T20:44:31.955Z,19.50
2023-02-05T20:46:59.853Z,19.50
2023-02-05T20:49:26.757Z,19.40
2023-02-05T20:51:54.405Z,19.50
2023-02-05T20:54:23.172Z,19.40
2023-02-05T20:56:57.011Z,19.50
2023-02-05T20:59:26.938Z,19.50
2023-02-05T21:01:55.239Z,19.50
2023-02-05T21:04:22.512Z,19.50
2023-02-05T21:06:49.443Z,19.50
2023-02-05T21:09:16.922Z,19.50
2023-02-05T21:11:43.828Z,19.50
2023-02-05T21:14:11.091Z,19.50
2023-02-05T21:16:38.755Z,19.50
2023-02-05T21:19:08.941Z,19.50
2023-02-05T21:21:40.010Z,19.50
2023-02-05T21:24:11.182Z,19.50
2023-02-05T21:26:40.284Z,19.50
2023-02-05T21:29:13.558Z,19.40
2023-02-05T21:31:46.422Z,19.40
2023-02-05T21:34:16.298Z,19.30
2023-02-05T21:36:43.734Z,19.30
2023-02-05T21:39:12.228Z,19.20
2023-02-05T21:41:39.756Z,19.10
2023-02-05T21:44:07.244Z,19.00
2023-02-05T21:46:34.570Z,19.00
2023-02-05T21:49:01.858Z,18.90
2023-02-05T21:51:31.824Z,18.90
2023-02-05T21:54:00.665Z,18.80
2023-02-05T21:56:31.017Z,18.80
2023-02-05T21:58:58.327Z,18.80
2023-02-05T22:01:28.527Z,18.80
2023-02-05T22:04:02.324Z,18.80
2023-02-05T22:06:31.860Z,18.70
2023-02-05T22:09:00.387Z,18.70
2023-02-05T22:11:28.203Z,18.70
2023-02-05T22:13:55.986Z,18.70
2023-02-05T22:16:31.603Z,18.70
2023-02-05T22:18:59.215Z,18.70
2023-02-05T22:21:29.458Z,18.70
2023-02-05T22:23:58.692Z,18.70
2023-02-05T22:26:28.633Z,18.70
2023-02-05T22:28:59.120Z,18.70
2023-02-05T22:31:27.624Z,18.70
2023-02-05T22:33:56.187Z,18.70
2023-02-05T22:36:25.192Z,18.70
2023-02-05T22:38:53.472Z,18.70
2023-02-05T22:41:21.510Z,18.80
2023-02-05T22:43:48.644Z,18.70
2023-02-05T22:46:19.980Z,18.80
2023-02-05T22:48:49.369Z,18.80
2023-02-05T22:51:19.665Z,18.80
2023-02-05T22:53:48.782Z,18.80
2023-02-05T22:56:16.527Z,18.80
2023-02-05T22:58:49.448Z,18.80
2023-02-05T23:01:38.225Z,18.80
2023-02-05T23:04:06.582Z,18.90
2023-02-05T23:06:40.016Z,18.80
2023-02-05T23:09:15.862Z,18.80
2023-02-05T23:11:43.528Z,18.80
2023-02-05T23:14:12.729Z,18.70
2023-02-05T23:16:42.286Z,18.70
2023-02-05T23:19:13.855Z,18.70
2023-02-05T23:21:41.138Z,18.60
2023-02-05T23:24:08.889Z,18.60
2023-02-05T23:26:40.042Z,18.60
2023-02-05T23:29:07.251Z,18.60
2023-02-05T23:31:34.298Z,18.60
2023-02-05T23:34:01.242Z,18.60
2023-02-05T23:36:28.023Z,18.60
2023-02-05T23:38:55.035Z,18.60
2023-02-05T23:41:42.304Z,18.60
2023-02-05T23:44:18.273Z,18.60
2023-02-05T23:46:47.580Z,18.60
2023-02-05T23:49:15.434Z,18.60
2023-02-05T23:51:42.533Z,18.60
2023-02-05T23:54:10.690Z,18.60
2023-02-05T23:56:37.867Z,18.60
2023-02-05T23:59:05.805Z,18.60
